Aviation Digital Data Service (ADDS)

Output produced by METARs form (1537 UTC 25 February 2018)
found at http://www.aviationweather.gov/adds/metars/
 
METAR text: KHLG 251508Z 26013G21KT 10SM FEW012 BKN036 OVC043 13/09 A2987 RMK AO2 RAE1458 P0001 T01280094
Conditions at: KHLG (WHEELING , WV, US) observed 1508 UTC 25 February 2018
Temperature: 12.8°C (55°F)
Dewpoint: 9.4°C (49°F) [RH = 80%]
Pressure (altimeter): 29.87 inches Hg (1011.6 mb)
Winds: from the W (260 degrees) at 15 MPH (13 knots; 6.8 m/s)
gusting to 24 MPH (21 knots; 10.9 m/s)
Visibility: 10 or more miles (16+ km)
Ceiling: 3600 feet AGL
Clouds: few clouds at 1200 feet AGL
broken clouds at 3600 feet AGL
overcast cloud deck at 4300 feet AGL
Weather: no significant weather observed at this time

METAR text: KHLG 251453Z 26021G33KT 5SM -RA SCT012 OVC021 12/09 A2987 RMK AO2 PK WND 28033/1448 WSHFT 1433 RAB32 SLP119 P0000 60000 T01220094 53037
Conditions at: KHLG (WHEELING , WV, US) observed 1453 UTC 25 February 2018
Temperature: 12.2°C (54°F)
Dewpoint: 9.4°C (49°F) [RH = 83%]
Pressure (altimeter): 29.87 inches Hg (1011.6 mb)
[Sea-level pressure: 1011.9 mb]
Winds: from the W (260 degrees) at 24 MPH (21 knots; 10.9 m/s)
gusting to 38 MPH (33 knots; 17.2 m/s)
Visibility: 5 miles (8 km)
Ceiling: 2100 feet AGL
Clouds: scattered clouds at 1200 feet AGL
overcast cloud deck at 2100 feet AGL
Weather: -RA  (light rain)

METAR text: KHLG 251353Z AUTO 21018G24KT 10SM BKN019 OVC023 14/11 A2981 RMK AO2 PK WND 23026/1330 PRESRR SLP096 T01440111
Conditions at: KHLG (WHEELING , WV, US) observed 1353 UTC 25 February 2018
Temperature: 14.4°C (58°F)
Dewpoint: 11.1°C (52°F) [RH = 81%]
Pressure (altimeter): 29.81 inches Hg (1009.6 mb)
[Sea-level pressure: 1009.6 mb]
Winds: from the SSW (210 degrees) at 21 MPH (18 knots; 9.4 m/s)
gusting to 28 MPH (24 knots; 12.5 m/s)
Visibility: 10 or more miles (16+ km)
Ceiling: 1900 feet AGL
Clouds: broken clouds at 1900 feet AGL
overcast cloud deck at 2300 feet AGL
Weather: automated observation with no human augmentation;
there may or may not be significant weather present at this time

METAR text: KHLG 251253Z AUTO 21014G23KT 10SM BKN020 OVC026 14/11 A2978 RMK AO2 PK WND 19029/1216 SLP088 T01390111
Conditions at: KHLG (WHEELING , WV, US) observed 1253 UTC 25 February 2018
Temperature: 13.9°C (57°F)
Dewpoint: 11.1°C (52°F) [RH = 83%]
Pressure (altimeter): 29.78 inches Hg (1008.5 mb)
[Sea-level pressure: 1008.8 mb]
Winds: from the SSW (210 degrees) at 16 MPH (14 knots; 7.3 m/s)
gusting to 26 MPH (23 knots; 12.0 m/s)
Visibility: 10 or more miles (16+ km)
Ceiling: 2000 feet AGL
Clouds: broken clouds at 2000 feet AGL
overcast cloud deck at 2600 feet AGL
Weather: automated observation with no human augmentation;
there may or may not be significant weather present at this time

METAR text: KHLG 251153Z AUTO 22014G27KT 10SM FEW034 BKN120 14/11 A2976 RMK AO2 PK WND 21029/1136 RAE02 PRESRR SLP079 P0000 60019 70054 T01440111 10156 20111 53009
Conditions at: KHLG (WHEELING , WV, US) observed 1153 UTC 25 February 2018
Temperature: 14.4°C (58°F)
Dewpoint: 11.1°C (52°F) [RH = 81%]
Pressure (altimeter): 29.76 inches Hg (1007.9 mb)
[Sea-level pressure: 1007.9 mb]
Winds: from the SW (220 degrees) at 16 MPH (14 knots; 7.3 m/s)
gusting to 31 MPH (27 knots; 14.0 m/s)
Visibility: 10 or more miles (16+ km)
Ceiling: 12000 feet AGL
Clouds: few clouds at 3400 feet AGL
broken clouds at 12000 feet AGL
Weather: automated observation with no human augmentation;
there may or may not be significant weather present at this time

METAR text: KHLG 251053Z AUTO 18021G31KT 10SM -RA FEW065 BKN075 OVC090 14/12 A2968 RMK AO2 PK WND 18031/1050 PRESFR SLP053 P0001 T01440117
Conditions at: KHLG (WHEELING , WV, US) observed 1053 UTC 25 February 2018
Temperature: 14.4°C (58°F)
Dewpoint: 11.7°C (53°F) [RH = 84%]
Pressure (altimeter): 29.68 inches Hg (1005.2 mb)
[Sea-level pressure: 1005.3 mb]
Winds: from the S (180 degrees) at 24 MPH (21 knots; 10.9 m/s)
gusting to 36 MPH (31 knots; 16.1 m/s)
Visibility: 10 or more miles (16+ km)
Ceiling: 7500 feet AGL
Clouds: few clouds at 6500 feet AGL
broken clouds at 7500 feet AGL
overcast cloud deck at 9000 feet AGL
Weather: -RA  (light rain)

METAR text: KHLG 250953Z AUTO 22017G27KT 10SM -RA OVC090 15/13 A2974 RMK AO2 PK WND 20027/0950 SLP075 P0002 T01500128
Conditions at: KHLG (WHEELING , WV, US) observed 0953 UTC 25 February 2018
Temperature: 15.0°C (59°F)
Dewpoint: 12.8°C (55°F) [RH = 87%]
Pressure (altimeter): 29.74 inches Hg (1007.2 mb)
[Sea-level pressure: 1007.5 mb]
Winds: from the SW (220 degrees) at 20 MPH (17 knots; 8.8 m/s)
gusting to 31 MPH (27 knots; 14.0 m/s)
Visibility: 10 or more miles (16+ km)
Ceiling: 9000 feet AGL
Clouds: overcast cloud deck at 9000 feet AGL
Weather: -RA  (light rain)

METAR text: KHLG 250853Z AUTO 20016G26KT 10SM -RA BKN100 16/13 A2973 RMK AO2 PK WND 20027/0843 RAE22B49 SLP070 P0001 60016 T01560133 56036
Conditions at: KHLG (WHEELING , WV, US) observed 0853 UTC 25 February 2018
Temperature: 15.6°C (60°F)
Dewpoint: 13.3°C (56°F) [RH = 86%]
Pressure (altimeter): 29.73 inches Hg (1006.9 mb)
[Sea-level pressure: 1007.0 mb]
Winds: from the SSW (200 degrees) at 18 MPH (16 knots; 8.3 m/s)
gusting to 30 MPH (26 knots; 13.5 m/s)
Visibility: 10 or more miles (16+ km)
Ceiling: 10000 feet AGL
Clouds: broken clouds at 10000 feet AGL
Weather: -RA  (light rain)

METAR text: KHLG 250753Z AUTO 15010KT 9SM -RA SCT041 OVC049 14/12 A2974 RMK AO2 SLP073 P0006 T01390122
Conditions at: KHLG (WHEELING , WV, US) observed 0753 UTC 25 February 2018
Temperature: 13.9°C (57°F)
Dewpoint: 12.2°C (54°F) [RH = 89%]
Pressure (altimeter): 29.74 inches Hg (1007.2 mb)
[Sea-level pressure: 1007.3 mb]
Winds: from the SSE (150 degrees) at 12 MPH (10 knots; 5.2 m/s)
Visibility: 9 miles (14 km)
Ceiling: 4900 feet AGL
Clouds: scattered clouds at 4100 feet AGL
overcast cloud deck at 4900 feet AGL
Weather: -RA  (light rain)

METAR text: KHLG 250653Z AUTO 15009KT 10SM -RA FEW042 SCT055 OVC095 13/12 A2979 RMK AO2 PRESFR SLP091 P0009 T01280117
Conditions at: KHLG (WHEELING , WV, US) observed 0653 UTC 25 February 2018
Temperature: 12.8°C (55°F)
Dewpoint: 11.7°C (53°F) [RH = 93%]
Pressure (altimeter): 29.79 inches Hg (1008.9 mb)
[Sea-level pressure: 1009.1 mb]
Winds: from the SSE (150 degrees) at 10 MPH (9 knots; 4.7 m/s)
Visibility: 10 or more miles (16+ km)
Ceiling: 9500 feet AGL
Clouds: few clouds at 4200 feet AGL
scattered clouds at 5500 feet AGL
overcast cloud deck at 9500 feet AGL
Weather: -RA  (light rain)

METAR text: KHLG 250553Z AUTO 16012KT 4SM RA BR FEW026 BKN050 OVC070 11/10 A2984 RMK AO2 RAB17 SLP109 P0010 60014 T01110100 10111 20083 56031
Conditions at: KHLG (WHEELING , WV, US) observed 0553 UTC 25 February 2018
Temperature: 11.1°C (52°F)
Dewpoint: 10.0°C (50°F) [RH = 93%]
Pressure (altimeter): 29.84 inches Hg (1010.6 mb)
[Sea-level pressure: 1010.9 mb]
Winds: from the SSE (160 degrees) at 14 MPH (12 knots; 6.2 m/s)
Visibility: 4 miles (6 km)
Ceiling: 5000 feet AGL
Clouds: few clouds at 2600 feet AGL
broken clouds at 5000 feet AGL
overcast cloud deck at 7000 feet AGL
Weather: RA BR  (rain, mist)

METAR text: KHLG 250505Z AUTO 11010KT 10SM SCT006 SCT049 BKN090 09/08 A2984 RMK AO2 PRESFR T00940083
Conditions at: KHLG (WHEELING , WV, US) observed 0505 UTC 25 February 2018
Temperature: 9.4°C (49°F)
Dewpoint: 8.3°C (47°F) [RH = 93%]
Pressure (altimeter): 29.84 inches Hg (1010.6 mb)
Winds: from the ESE (110 degrees) at 12 MPH (10 knots; 5.2 m/s)
Visibility: 10 or more miles (16+ km)
Ceiling: 9000 feet AGL
Clouds: scattered clouds at 600 feet AGL
scattered clouds at 4900 feet AGL
broken clouds at 9000 feet AGL
Weather: automated observation with no human augmentation;
there may or may not be significant weather present at this time

METAR text: KHLG 250453Z AUTO 11009KT 10SM BKN006 BKN046 OVC055 09/08 A2986 RMK AO2 RAE0354 SLP116 P0000 T00940083 401440078
Conditions at: KHLG (WHEELING , WV, US) observed 0453 UTC 25 February 2018
Temperature: 9.4°C (49°F)
Dewpoint: 8.3°C (47°F) [RH = 93%]
Pressure (altimeter): 29.86 inches Hg (1011.3 mb)
[Sea-level pressure: 1011.6 mb]
Winds: from the ESE (110 degrees) at 10 MPH (9 knots; 4.7 m/s)
Visibility: 10 or more miles (16+ km)
Ceiling: 600 feet AGL
Clouds: broken clouds at 600 feet AGL
broken clouds at 4600 feet AGL
overcast cloud deck at 5500 feet AGL
Weather: automated observation with no human augmentation;
there may or may not be significant weather present at this time

METAR text: KHLG 250424Z AUTO 11008KT 10SM BKN008 OVC013 09/08 A2988 RMK AO2 RAE0354 P0000 T00890078
Conditions at: KHLG (WHEELING , WV, US) observed 0424 UTC 25 February 2018
Temperature: 8.9°C (48°F)
Dewpoint: 7.8°C (46°F) [RH = 93%]
Pressure (altimeter): 29.88 inches Hg (1011.9 mb)
Winds: from the ESE (110 degrees) at 9 MPH (8 knots; 4.2 m/s)
Visibility: 10 or more miles (16+ km)
Ceiling: 800 feet AGL
Clouds: broken clouds at 800 feet AGL
overcast cloud deck at 1300 feet AGL
Weather: automated observation with no human augmentation;
there may or may not be significant weather present at this time

METAR text: KHLG 250353Z AUTO 10008KT 10SM -RA SCT009 BKN014 OVC018 09/08 A2990 RMK AO2 SLP132 P0002 T00890078
Conditions at: KHLG (WHEELING , WV, US) observed 0353 UTC 25 February 2018
Temperature: 8.9°C (48°F)
Dewpoint: 7.8°C (46°F) [RH = 93%]
Pressure (altimeter): 29.90 inches Hg (1012.6 mb)
[Sea-level pressure: 1013.2 mb]
Winds: from the E (100 degrees) at 9 MPH (8 knots; 4.2 m/s)
Visibility: 10 or more miles (16+ km)
Ceiling: 1400 feet AGL
Clouds: scattered clouds at 900 feet AGL
broken clouds at 1400 feet AGL
overcast cloud deck at 1800 feet AGL
Weather: -RA  (light rain)

METAR text: KHLG 250324Z AUTO 09009KT 6SM -RA BR OVC009 09/07 A2991 RMK AO2 P0001 T00890072
Conditions at: KHLG (WHEELING , WV, US) observed 0324 UTC 25 February 2018
Temperature: 8.9°C (48°F)
Dewpoint: 7.2°C (45°F) [RH = 89%]
Pressure (altimeter): 29.91 inches Hg (1013.0 mb)
Winds: from the E (90 degrees) at 10 MPH (9 knots; 4.7 m/s)
Visibility: 6 miles (10 km)
Ceiling: 900 feet AGL
Clouds: overcast cloud deck at 900 feet AGL
Weather: -RA BR  (light rain, mist)

METAR text: KHLG 250253Z AUTO 10007KT 10SM -RA OVC011 09/07 A2993 RMK AO2 RAB0159E22B29 SLP142 P0001 60002 T00890072 58027
Conditions at: KHLG (WHEELING , WV, US) observed 0253 UTC 25 February 2018
Temperature: 8.9°C (48°F)
Dewpoint: 7.2°C (45°F) [RH = 89%]
Pressure (altimeter): 29.93 inches Hg (1013.6 mb)
[Sea-level pressure: 1014.2 mb]
Winds: from the E (100 degrees) at 8 MPH (7 knots; 3.6 m/s)
Visibility: 10 or more miles (16+ km)
Ceiling: 1100 feet AGL
Clouds: overcast cloud deck at 1100 feet AGL
Weather: -RA  (light rain)

METAR text: KHLG 250227Z AUTO 10009KT 5SM BR FEW007 OVC013 08/07 A2995 RMK AO2 RAB0159E22 P0001 T00830072
Conditions at: KHLG (WHEELING , WV, US) observed 0227 UTC 25 February 2018
Temperature: 8.3°C (47°F)
Dewpoint: 7.2°C (45°F) [RH = 93%]
Pressure (altimeter): 29.95 inches Hg (1014.3 mb)
Winds: from the E (100 degrees) at 10 MPH (9 knots; 4.7 m/s)
Visibility: 5 miles (8 km)
Ceiling: 1300 feet AGL
Clouds: few clouds at 700 feet AGL
overcast cloud deck at 1300 feet AGL
Weather: BR  (mist)

METAR text: KHLG 250153Z AUTO 11007KT 9SM FEW007 BKN016 OVC021 08/07 A2998 RMK AO2 RAB26E46 SLP157 P0000 T00830072
Conditions at: KHLG (WHEELING , WV, US) observed 0153 UTC 25 February 2018
Temperature: 8.3°C (47°F)
Dewpoint: 7.2°C (45°F) [RH = 93%]
Pressure (altimeter): 29.98 inches Hg (1015.3 mb)
[Sea-level pressure: 1015.7 mb]
Winds: from the ESE (110 degrees) at 8 MPH (7 knots; 3.6 m/s)
Visibility: 9 miles (14 km)
Ceiling: 1600 feet AGL
Clouds: few clouds at 700 feet AGL
broken clouds at 1600 feet AGL
overcast cloud deck at 2100 feet AGL
Weather: automated observation with no human augmentation;
there may or may not be significant weather present at this time

METAR text: KHLG 250132Z AUTO 09006KT 9SM -RA SCT007 OVC021 08/07 A2999 RMK AO2 RAB26 P0000 T00830072
Conditions at: KHLG (WHEELING , WV, US) observed 0132 UTC 25 February 2018
Temperature: 8.3°C (47°F)
Dewpoint: 7.2°C (45°F) [RH = 93%]
Pressure (altimeter): 29.99 inches Hg (1015.7 mb)
Winds: from the E (90 degrees) at 7 MPH (6 knots; 3.1 m/s)
Visibility: 9 miles (14 km)
Ceiling: 2100 feet AGL
Clouds: scattered clouds at 700 feet AGL
overcast cloud deck at 2100 feet AGL
Weather: -RA  (light rain)

METAR text: KHLG 250053Z AUTO 06007KT 10SM BKN009 BKN020 OVC035 08/07 A3000 RMK AO2 RAB21E39 SLP166 P0001 T00830072
Conditions at: KHLG (WHEELING , WV, US) observed 0053 UTC 25 February 2018
Temperature: 8.3°C (47°F)
Dewpoint: 7.2°C (45°F) [RH = 93%]
Pressure (altimeter): 30.00 inches Hg (1016.0 mb)
[Sea-level pressure: 1016.6 mb]
Winds: from the ENE (60 degrees) at 8 MPH (7 knots; 3.6 m/s)
Visibility: 10 or more miles (16+ km)
Ceiling: 900 feet AGL
Clouds: broken clouds at 900 feet AGL
broken clouds at 2000 feet AGL
overcast cloud deck at 3500 feet AGL
Weather: automated observation with no human augmentation;
there may or may not be significant weather present at this time

METAR text: KHLG 250002Z AUTO 06006KT 10SM OVC010 08/07 A3002 RMK AO2 T00830072
Conditions at: KHLG (WHEELING , WV, US) observed 0002 UTC 25 February 2018
Temperature: 8.3°C (47°F)
Dewpoint: 7.2°C (45°F) [RH = 93%]
Pressure (altimeter): 30.02 inches Hg (1016.7 mb)
Winds: from the ENE (60 degrees) at 7 MPH (6 knots; 3.1 m/s)
Visibility: 10 or more miles (16+ km)
Ceiling: 1000 feet AGL
Clouds: overcast cloud deck at 1000 feet AGL
Weather: automated observation with no human augmentation;
there may or may not be significant weather present at this time

METAR text: KHLG 242353Z 04006KT 10SM OVC009 08/07 A3002 RMK AO2 SLP170 60004 T00830067 10094 20078 58004
Conditions at: KHLG (WHEELING , WV, US) observed 2353 UTC 24 February 2018
Temperature: 8.3°C (47°F)
Dewpoint: 6.7°C (44°F) [RH = 90%]
Pressure (altimeter): 30.02 inches Hg (1016.7 mb)
[Sea-level pressure: 1017.0 mb]
Winds: from the NE (40 degrees) at 7 MPH (6 knots; 3.1 m/s)
Visibility: 10 or more miles (16+ km)
Ceiling: 900 feet AGL
Clouds: overcast cloud deck at 900 feet AGL
Weather: no significant weather observed at this time

METAR text: KHLG 242253Z 05006KT 10SM OVC008 09/07 A3003 RMK AO2 SLP173 T00890072
Conditions at: KHLG (WHEELING , WV, US) observed 2253 UTC 24 February 2018
Temperature: 8.9°C (48°F)
Dewpoint: 7.2°C (45°F) [RH = 89%]
Pressure (altimeter): 30.03 inches Hg (1017.0 mb)
[Sea-level pressure: 1017.3 mb]
Winds: from the NE (50 degrees) at 7 MPH (6 knots; 3.1 m/s)
Visibility: 10 or more miles (16+ km)
Ceiling: 800 feet AGL
Clouds: overcast cloud deck at 800 feet AGL
Weather: no significant weather observed at this time

METAR text: KHLG 242235Z 08006KT 10SM OVC009 09/07 A3002 RMK AO2 T00890067
Conditions at: KHLG (WHEELING , WV, US) observed 2235 UTC 24 February 2018
Temperature: 8.9°C (48°F)
Dewpoint: 6.7°C (44°F) [RH = 86%]
Pressure (altimeter): 30.02 inches Hg (1016.7 mb)
Winds: from the E (80 degrees) at 7 MPH (6 knots; 3.1 m/s)
Visibility: 10 or more miles (16+ km)
Ceiling: 900 feet AGL
Clouds: overcast cloud deck at 900 feet AGL
Weather: no significant weather observed at this time

METAR text: KHLG 242153Z 09007KT 10SM OVC011 09/07 A3002 RMK AO2 SLP171 T00890067
Conditions at: KHLG (WHEELING , WV, US) observed 2153 UTC 24 February 2018
Temperature: 8.9°C (48°F)
Dewpoint: 6.7°C (44°F) [RH = 86%]
Pressure (altimeter): 30.02 inches Hg (1016.7 mb)
[Sea-level pressure: 1017.1 mb]
Winds: from the E (90 degrees) at 8 MPH (7 knots; 3.6 m/s)
Visibility: 10 or more miles (16+ km)
Ceiling: 1100 feet AGL
Clouds: overcast cloud deck at 1100 feet AGL
Weather: no significant weather observed at this time

METAR text: KHLG 242120Z 10012KT 10SM OVC011 09/07 A3002 RMK AO2 T00890067
Conditions at: KHLG (WHEELING , WV, US) observed 2120 UTC 24 February 2018
Temperature: 8.9°C (48°F)
Dewpoint: 6.7°C (44°F) [RH = 86%]
Pressure (altimeter): 30.02 inches Hg (1016.7 mb)
Winds: from the E (100 degrees) at 14 MPH (12 knots; 6.2 m/s)
Visibility: 10 or more miles (16+ km)
Ceiling: 1100 feet AGL
Clouds: overcast cloud deck at 1100 feet AGL
Weather: no significant weather observed at this time

METAR text: KHLG 242053Z 09008KT 10SM OVC009 08/07 A3003 RMK AO2 CIG 007V012 SLP174 60004 T00830067 58024
Conditions at: KHLG (WHEELING , WV, US) observed 2053 UTC 24 February 2018
Temperature: 8.3°C (47°F)
Dewpoint: 6.7°C (44°F) [RH = 90%]
Pressure (altimeter): 30.03 inches Hg (1017.0 mb)
[Sea-level pressure: 1017.4 mb]
Winds: from the E (90 degrees) at 9 MPH (8 knots; 4.2 m/s)
Visibility: 10 or more miles (16+ km)
Ceiling: 900 feet AGL
Clouds: overcast cloud deck at 900 feet AGL
Weather: no significant weather observed at this time

METAR text: KHLG 242036Z 10012KT 10SM BKN010 OVC060 08/07 A3002 RMK AO2 CIG 007V012 T00830067
Conditions at: KHLG (WHEELING , WV, US) observed 2036 UTC 24 February 2018
Temperature: 8.3°C (47°F)
Dewpoint: 6.7°C (44°F) [RH = 90%]
Pressure (altimeter): 30.02 inches Hg (1016.7 mb)
Winds: from the E (100 degrees) at 14 MPH (12 knots; 6.2 m/s)
Visibility: 10 or more miles (16+ km)
Ceiling: 1000 feet AGL
Clouds: broken clouds at 1000 feet AGL
overcast cloud deck at 6000 feet AGL
Weather: no significant weather observed at this time

METAR text: KHLG 241953Z 09012G19KT 10SM BKN007 BKN047 OVC065 09/07 A3004 RMK AO2 RAE15B31E50 SLP178 P0000 T00890072
Conditions at: KHLG (WHEELING , WV, US) observed 1953 UTC 24 February 2018
Temperature: 8.9°C (48°F)
Dewpoint: 7.2°C (45°F) [RH = 89%]
Pressure (altimeter): 30.04 inches Hg (1017.4 mb)
[Sea-level pressure: 1017.8 mb]
Winds: from the E (90 degrees) at 14 MPH (12 knots; 6.2 m/s)
gusting to 22 MPH (19 knots; 9.9 m/s)
Visibility: 10 or more miles (16+ km)
Ceiling: 700 feet AGL
Clouds: broken clouds at 700 feet AGL
broken clouds at 4700 feet AGL
overcast cloud deck at 6500 feet AGL
Weather: no significant weather observed at this time

METAR text: KHLG 241920Z 07008KT 6SM BR BKN006 OVC055 08/07 A3008 RMK AO2 RAE15 P0000 T00830067
Conditions at: KHLG (WHEELING , WV, US) observed 1920 UTC 24 February 2018
Temperature: 8.3°C (47°F)
Dewpoint: 6.7°C (44°F) [RH = 90%]
Pressure (altimeter): 30.08 inches Hg (1018.7 mb)
Winds: from the ENE (70 degrees) at 9 MPH (8 knots; 4.2 m/s)
Visibility: 6 miles (10 km)
Ceiling: 600 feet AGL
Clouds: broken clouds at 600 feet AGL
overcast cloud deck at 5500 feet AGL
Weather: BR  (mist)

METAR text: KHLG 241906Z 03009KT 3SM -RA BR SCT007 OVC049 08/07 A3008 RMK AO2 P0000 T00830067
Conditions at: KHLG (WHEELING , WV, US) observed 1906 UTC 24 February 2018
Temperature: 8.3°C (47°F)
Dewpoint: 6.7°C (44°F) [RH = 90%]
Pressure (altimeter): 30.08 inches Hg (1018.7 mb)
Winds: from the NNE (30 degrees) at 10 MPH (9 knots; 4.7 m/s)
Visibility: 3 miles (5 km)
Ceiling: 4900 feet AGL
Clouds: scattered clouds at 700 feet AGL
overcast cloud deck at 4900 feet AGL
Weather: -RA BR  (light rain, mist)

METAR text: KHLG 241853Z 04006KT 2 1/2SM -RA BR FEW007 SCT011 OVC050 08/07 A3010 RMK AO2 SLP198 P0004 T00830067
Conditions at: KHLG (WHEELING , WV, US) observed 1853 UTC 24 February 2018
Temperature: 8.3°C (47°F)
Dewpoint: 6.7°C (44°F) [RH = 90%]
Pressure (altimeter): 30.10 inches Hg (1019.4 mb)
[Sea-level pressure: 1019.8 mb]
Winds: from the NE (40 degrees) at 7 MPH (6 knots; 3.1 m/s)
Visibility: 2.50 miles (4.02 km)
Ceiling: 5000 feet AGL
Clouds: few clouds at 700 feet AGL
scattered clouds at 1100 feet AGL
overcast cloud deck at 5000 feet AGL
Weather: -RA BR  (light rain, mist)

METAR text: KHLG 241825Z VRB04KT 3SM -RA BR FEW009 OVC055 08/06 A3010 RMK AO2 P0002 T00780061
Conditions at: KHLG (WHEELING , WV, US) observed 1825 UTC 24 February 2018
Temperature: 7.8°C (46°F)
Dewpoint: 6.1°C (43°F) [RH = 89%]
Pressure (altimeter): 30.10 inches Hg (1019.4 mb)
Winds: variable direction winds at 5 MPH (4 knots; 2.1 m/s)
Visibility: 3 miles (5 km)
Ceiling: 5500 feet AGL
Clouds: few clouds at 900 feet AGL
overcast cloud deck at 5500 feet AGL
Weather: -RA BR  (light rain, mist)

METAR text: KHLG 241753Z 07008KT 5SM -RA BR OVC055 08/06 A3010 RMK AO2 SLP198 P0008 60017 T00780061 10083 20078 58021
Conditions at: KHLG (WHEELING , WV, US) observed 1753 UTC 24 February 2018
Temperature: 7.8°C (46°F)
Dewpoint: 6.1°C (43°F) [RH = 89%]
Pressure (altimeter): 30.10 inches Hg (1019.4 mb)
[Sea-level pressure: 1019.8 mb]
Winds: from the ENE (70 degrees) at 9 MPH (8 knots; 4.2 m/s)
Visibility: 5 miles (8 km)
Ceiling: 5500 feet AGL
Clouds: overcast cloud deck at 5500 feet AGL
Weather: -RA BR  (light rain, mist)

METAR text: KHLG 241716Z 10007KT 3SM RA BR OVC048 08/06 A3013 RMK AO2 P0004 T00780061
Conditions at: KHLG (WHEELING , WV, US) observed 1716 UTC 24 February 2018
Temperature: 7.8°C (46°F)
Dewpoint: 6.1°C (43°F) [RH = 89%]
Pressure (altimeter): 30.13 inches Hg (1020.4 mb)
Winds: from the E (100 degrees) at 8 MPH (7 knots; 3.6 m/s)
Visibility: 3 miles (5 km)
Ceiling: 4800 feet AGL
Clouds: overcast cloud deck at 4800 feet AGL
Weather: RA BR  (rain, mist)

METAR text: KHLG 241653Z 07004KT 2 1/2SM -RA BR OVC045 08/06 A3015 RMK AO2 SLP215 P0005 T00780061
Conditions at: KHLG (WHEELING , WV, US) observed 1653 UTC 24 February 2018
Temperature: 7.8°C (46°F)
Dewpoint: 6.1°C (43°F) [RH = 89%]
Pressure (altimeter): 30.15 inches Hg (1021.1 mb)
[Sea-level pressure: 1021.5 mb]
Winds: from the ENE (70 degrees) at 5 MPH (4 knots; 2.1 m/s)
Visibility: 2.50 miles (4.02 km)
Ceiling: 4500 feet AGL
Clouds: overcast cloud deck at 4500 feet AGL
Weather: -RA BR  (light rain, mist)

METAR text: KHLG 241553Z 33005KT 5SM -RA BR FEW009 OVC046 08/06 A3017 RMK AO2 RAB43 SLP219 P0000 T00780061
Conditions at: KHLG (WHEELING , WV, US) observed 1553 UTC 24 February 2018
Temperature: 7.8°C (46°F)
Dewpoint: 6.1°C (43°F) [RH = 89%]
Pressure (altimeter): 30.17 inches Hg (1021.8 mb)
[Sea-level pressure: 1021.9 mb]
Winds: from the NNW (330 degrees) at 6 MPH (5 knots; 2.6 m/s)
Visibility: 5 miles (8 km)
Ceiling: 4600 feet AGL
Clouds: few clouds at 900 feet AGL
overcast cloud deck at 4600 feet AGL
Weather: -RA BR  (light rain, mist)